Time;durP1;ratioP1;P1;durP2;ratioP2;P2;SDS_P1;SDS_P2;PMS_P1;PMS_P2;Temp;Humidity;BMP_temperature;BMP_pressure;BME280_temperature;BME280_humidity;BME280_pressure;Samples;Min_cycle;Max_cycle;Signal;HPM_P1;HPM_P2
2021/05/27 00:00:27;;;;;;;16.75;6.13;;;;;;;;;;5112903;28;20026;-63
2021/05/27 00:02:53;;;;;;;19.13;5.85;;;;;;;;;;5113030;28;20548;-64
2021/05/27 00:05:18;;;;;;;11.85;5.35;;;;;;;;;;5113900;28;20118;-63
2021/05/27 00:07:43;;;;;;;12.68;6.03;;;;;;;;;;5113791;28;20023;-63
2021/05/27 00:10:10;;;;;;;14.73;5.65;;;;;;;;;;5096161;28;20072;-63
2021/05/27 00:12:35;;;;;;;16.48;6.03;;;;;;;;;;5096272;28;20032;-63
2021/05/27 00:15:01;;;;;;;11.75;6.13;;;;;;;;;;5096038;28;20012;-63
2021/05/27 00:17:26;;;;;;;13.75;6.18;;;;;;;;;;5096019;28;20578;-63
2021/05/27 00:19:52;;;;;;;15.95;6.22;;;;;;;;;;5113611;28;20498;-63
2021/05/27 00:22:17;;;;;;;16.50;6.50;;;;;;;;;;5116328;28;20072;-64
2021/05/27 00:24:42;;;;;;;12.48;5.88;;;;;;;;;;5110028;28;20473;-63
2021/05/27 00:27:08;;;;;;;19.48;7.03;;;;;;;;;;5099452;28;20085;-63
2021/05/27 00:29:33;;;;;;;12.07;6.45;;;;;;;;;;5107392;28;20013;-63
2021/05/27 00:31:58;;;;;;;20.83;6.70;;;;;;;;;;5095581;28;20102;-63
2021/05/27 00:34:24;;;;;;;14.32;6.28;;;;;;;;;;5095756;28;20036;-64
2021/05/27 00:36:49;;;;;;;14.75;6.25;;;;;;;;;;5095643;28;20077;-63
2021/05/27 00:39:14;;;;;;;14.38;5.45;;;;;;;;;;5095743;28;20038;-63
2021/05/27 00:41:40;;;;;;;13.70;6.13;;;;;;;;;;5095479;28;20089;-64
2021/05/27 00:44:23;;;;;;;17.10;6.93;;;;;;;;;;5095756;28;20008;-63
2021/05/27 00:46:50;;;;;;;13.48;6.43;;;;;;;;;;5095327;28;20028;-63
2021/05/27 00:49:15;;;;;;;12.63;5.95;;;;;;;;;;5095471;28;20055;-64
2021/05/27 00:51:42;;;;;;;15.18;5.85;;;;;;;;;;5095036;28;20468;-64
2021/05/27 00:54:07;;;;;;;19.55;7.35;;;;;;;;;;5095433;28;20059;-63
2021/05/27 00:56:32;;;;;;;14.95;6.28;;;;;;;;;;5095349;28;20063;-64
2021/05/27 00:58:58;;;;;;;12.57;5.65;;;;;;;;;;5095358;28;20107;-64
2021/05/27 01:01:24;;;;;;;19.80;6.68;;;;;;;;;;5095122;28;20541;-64
2021/05/27 01:03:49;;;;;;;17.60;7.05;;;;;;;;;;5095174;28;20028;-64
2021/05/27 01:06:14;;;;;;;14.63;5.85;;;;;;;;;;5095070;28;20020;-64
2021/05/27 01:08:40;;;;;;;12.45;6.00;;;;;;;;;;5095072;28;20032;-64
2021/05/27 01:11:05;;;;;;;16.45;6.35;;;;;;;;;;5095149;28;20079;-64
2021/05/27 01:13:34;;;;;;;15.05;6.32;;;;;;;;;;5095134;28;20104;-64
2021/05/27 01:15:59;;;;;;;13.25;6.20;;;;;;;;;;5094565;28;20075;-64
2021/05/27 01:18:27;;;;;;;15.32;6.68;;;;;;;;;;5094174;28;20429;-64
2021/05/27 01:20:53;;;;;;;15.98;6.90;;;;;;;;;;5094814;28;20411;-64
2021/05/27 01:23:19;;;;;;;16.10;7.22;;;;;;;;;;5094855;28;20032;-64
2021/05/27 01:25:46;;;;;;;26.42;7.50;;;;;;;;;;5094656;28;20048;-64
2021/05/27 01:28:12;;;;;;;15.55;7.10;;;;;;;;;;5094424;28;20434;-64
2021/05/27 01:30:37;;;;;;;22.70;6.70;;;;;;;;;;5112150;28;20031;-64
2021/05/27 01:33:03;;;;;;;20.10;6.43;;;;;;;;;;5114752;28;20032;-64
2021/05/27 01:35:28;;;;;;;15.32;6.53;;;;;;;;;;5114867;28;20045;-64
2021/05/27 01:37:54;;;;;;;15.57;5.47;;;;;;;;;;5114690;28;20065;-64
2021/05/27 01:40:21;;;;;;;14.20;6.50;;;;;;;;;;5096615;28;20024;-64
2021/05/27 01:42:46;;;;;;;17.02;6.10;;;;;;;;;;5114814;28;20016;-64
2021/05/27 01:45:12;;;;;;;14.80;6.10;;;;;;;;;;5115058;28;20118;-64
2021/05/27 01:47:38;;;;;;;16.00;7.25;;;;;;;;;;5114624;28;20040;-64
2021/05/27 01:50:04;;;;;;;17.52;6.38;;;;;;;;;;5114614;28;20365;-64
2021/05/27 01:52:29;;;;;;;19.73;6.53;;;;;;;;;;5114622;28;20024;-64
2021/05/27 01:54:54;;;;;;;14.70;6.10;;;;;;;;;;5114558;28;20398;-64
2021/05/27 01:57:20;;;;;;;15.20;6.25;;;;;;;;;;5114506;28;20103;-64
2021/05/27 01:59:45;;;;;;;15.15;7.00;;;;;;;;;;5114294;28;20085;-64
2021/05/27 02:02:10;;;;;;;16.13;7.07;;;;;;;;;;5114125;28;20484;-64
2021/05/27 02:04:36;;;;;;;11.23;6.13;;;;;;;;;;5114103;28;20019;-64
2021/05/27 02:07:11;;;;;;;17.88;7.25;;;;;;;;;;5114187;28;20066;-64
2021/05/27 02:09:36;;;;;;;13.43;6.35;;;;;;;;;;5114327;28;20047;-64
2021/05/27 02:12:01;;;;;;;18.83;6.70;;;;;;;;;;5114231;28;20581;-64
2021/05/27 02:14:27;;;;;;;14.95;7.25;;;;;;;;;;5113782;28;20169;-64
2021/05/27 02:16:53;;;;;;;16.42;6.55;;;;;;;;;;5113776;28;20016;-64
2021/05/27 02:19:18;;;;;;;14.32;6.22;;;;;;;;;;5113865;28;20027;-64
2021/05/27 02:21:44;;;;;;;19.88;7.30;;;;;;;;;;5114021;28;20039;-64
2021/05/27 02:24:10;;;;;;;16.45;6.63;;;;;;;;;;5114120;28;20012;-64
2021/05/27 02:26:35;;;;;;;14.10;5.95;;;;;;;;;;5113631;28;20028;-65
2021/05/27 02:29:01;;;;;;;16.73;6.45;;;;;;;;;;5109693;28;20040;-64
2021/05/27 02:31:26;;;;;;;14.20;5.90;;;;;;;;;;5093506;28;20020;-64
2021/05/27 02:33:52;;;;;;;16.08;6.18;;;;;;;;;;5093567;28;20473;-64
2021/05/27 02:36:17;;;;;;;14.88;6.18;;;;;;;;;;5093559;28;20046;-64
2021/05/27 02:38:43;;;;;;;19.60;6.55;;;;;;;;;;5075433;28;20027;-64
2021/05/27 02:41:08;;;;;;;15.65;5.90;;;;;;;;;;5093728;28;20038;-64
2021/05/27 02:43:35;;;;;;;15.50;6.15;;;;;;;;;;5093394;28;20046;-64
2021/05/27 02:46:00;;;;;;;14.85;5.95;;;;;;;;;;5093464;28;20043;-64
2021/05/27 02:48:26;;;;;;;15.93;5.80;;;;;;;;;;5093367;28;20067;-64
2021/05/27 02:50:51;;;;;;;15.68;5.90;;;;;;;;;;5093307;28;20055;-64
2021/05/27 02:53:17;;;;;;;14.77;5.47;;;;;;;;;;5093393;28;20377;-64
2021/05/27 02:55:42;;;;;;;22.42;5.97;;;;;;;;;;5093201;28;20024;-64
2021/05/27 02:58:08;;;;;;;16.15;6.25;;;;;;;;;;5093338;28;20111;-64
2021/05/27 03:00:33;;;;;;;15.05;5.78;;;;;;;;;;5093531;28;20020;-64
2021/05/27 03:02:58;;;;;;;16.02;6.35;;;;;;;;;;5093207;28;20032;-64
2021/05/27 03:05:24;;;;;;;14.40;6.30;;;;;;;;;;5093524;28;20039;-64
2021/05/27 03:07:49;;;;;;;13.10;6.30;;;;;;;;;;5093164;28;20024;-64
2021/05/27 03:10:14;;;;;;;16.50;5.82;;;;;;;;;;5093133;28;20369;-64
2021/05/27 03:12:39;;;;;;;13.32;5.97;;;;;;;;;;5092858;28;20107;-64
2021/05/27 03:15:06;;;;;;;16.67;6.10;;;;;;;;;;5093122;28;20069;-64
2021/05/27 03:17:32;;;;;;;13.65;6.15;;;;;;;;;;5093166;28;20028;-64
2021/05/27 03:19:57;;;;;;;14.82;5.97;;;;;;;;;;5093110;28;20084;-65
2021/05/27 03:22:22;;;;;;;14.05;6.78;;;;;;;;;;5092993;28;20019;-64
2021/05/27 03:24:47;;;;;;;15.75;6.35;;;;;;;;;;5093057;28;20484;-64
2021/05/27 03:27:13;;;;;;;16.42;6.32;;;;;;;;;;5092952;28;20384;-64
2021/05/27 03:29:39;;;;;;;13.82;5.97;;;;;;;;;;5102269;28;20095;-64
2021/05/27 03:32:04;;;;;;;16.17;6.10;;;;;;;;;;5112961;28;20118;-64
2021/05/27 03:34:29;;;;;;;11.25;5.47;;;;;;;;;;5113331;28;20032;-64
2021/05/27 03:36:55;;;;;;;18.70;6.40;;;;;;;;;;5113166;28;20023;-64
2021/05/27 03:39:20;;;;;;;16.27;6.97;;;;;;;;;;5113562;28;20030;-64
2021/05/27 03:41:45;;;;;;;17.77;6.53;;;;;;;;;;5116691;28;20054;-64
2021/05/27 03:44:11;;;;;;;13.43;5.70;;;;;;;;;;5117270;28;20011;-64
2021/05/27 03:46:36;;;;;;;12.93;5.88;;;;;;;;;;5116932;28;20054;-64
2021/05/27 03:49:01;;;;;;;16.23;6.50;;;;;;;;;;5098874;28;20400;-65
2021/05/27 03:51:27;;;;;;;13.82;5.60;;;;;;;;;;5116940;28;20028;-64
2021/05/27 03:53:52;;;;;;;13.45;6.22;;;;;;;;;;5117042;28;20076;-64
2021/05/27 03:56:17;;;;;;;22.75;6.25;;;;;;;;;;5116839;28;20040;-64
2021/05/27 04:01:26;;;;;;;12.30;5.40;;;;;;;;;;5116475;28;20118;-64
2021/05/27 04:09:19;;;;;;;12.38;5.35;;;;;;;;;;5116284;28;20100;-64
2021/05/27 04:11:44;;;;;;;11.40;6.00;;;;;;;;;;5116575;28;20380;-64
2021/05/27 04:14:10;;;;;;;16.10;6.50;;;;;;;;;;5116376;28;20046;-64
2021/05/27 04:16:35;;;;;;;13.80;5.72;;;;;;;;;;5116452;28;20008;-64
2021/05/27 04:19:00;;;;;;;15.95;6.03;;;;;;;;;;5116467;28;20026;-64
2021/05/27 04:21:26;;;;;;;12.38;4.95;;;;;;;;;;5116468;28;20475;-65
2021/05/27 04:23:51;;;;;;;14.90;5.63;;;;;;;;;;5116345;28;20047;-64
2021/05/27 04:26:16;;;;;;;22.73;6.50;;;;;;;;;;5116375;28;20079;-64
2021/05/27 04:28:42;;;;;;;16.05;5.63;;;;;;;;;;5114712;28;20395;-64
2021/05/27 04:31:13;;;;;;;14.43;5.30;;;;;;;;;;5095499;28;20383;-65
2021/05/27 04:33:44;;;;;;;15.75;4.80;;;;;;;;;;5095735;28;20054;-64
2021/05/27 04:36:13;;;;;;;12.20;5.35;;;;;;;;;;5095672;28;20038;-64
2021/05/27 04:38:39;;;;;;;10.65;5.28;;;;;;;;;;5095681;28;20071;-64
2021/05/27 04:41:04;;;;;;;12.93;5.28;;;;;;;;;;5095679;28;20059;-64
2021/05/27 04:43:30;;;;;;;13.52;5.80;;;;;;;;;;5107098;28;20016;-64
2021/05/27 04:45:55;;;;;;;13.82;5.35;;;;;;;;;;5115731;28;20073;-64
2021/05/27 04:48:21;;;;;;;16.10;5.28;;;;;;;;;;5115842;28;20075;-64
2021/05/27 04:50:48;;;;;;;11.98;4.35;;;;;;;;;;5115623;28;20076;-65
2021/05/27 04:53:14;;;;;;;12.70;4.32;;;;;;;;;;5115874;28;20103;-65
2021/05/27 04:55:39;;;;;;;94.45;11.05;;;;;;;;;;5115538;28;20431;-64
2021/05/27 04:58:05;;;;;;;383.10;24.45;;;;;;;;;;5115831;28;20451;-65
2021/05/27 05:00:30;;;;;;;19.70;4.28;;;;;;;;;;5115675;28;20027;-65
2021/05/27 05:02:56;;;;;;;389.73;21.63;;;;;;;;;;5115726;28;20031;-65
2021/05/27 05:05:23;;;;;;;151.93;10.68;;;;;;;;;;5115253;28;20027;-65
2021/05/27 05:07:51;;;;;;;102.65;6.55;;;;;;;;;;5115492;28;20035;-65
2021/05/27 05:10:18;;;;;;;98.97;6.75;;;;;;;;;;5115146;28;20044;-64
2021/05/27 05:12:46;;;;;;;968.75;61.40;;;;;;;;;;5115448;28;20026;-65
2021/05/27 05:15:19;;;;;;;1143.20;68.97;;;;;;;;;;5115303;28;20118;-65
2021/05/27 05:18:05;;;;;;;85.05;9.00;;;;;;;;;;5115048;28;20514;-65
2021/05/27 05:20:38;;;;;;;76.82;6.28;;;;;;;;;;5114185;28;20487;-65
2021/05/27 05:23:03;;;;;;;7.32;2.22;;;;;;;;;;5115025;28;20042;-65
2021/05/27 05:25:30;;;;;;;12.30;2.90;;;;;;;;;;5115209;28;20020;-65
2021/05/27 05:27:55;;;;;;;14.57;3.28;;;;;;;;;;5115088;28;20118;-63
2021/05/27 05:30:21;;;;;;;8.45;2.67;;;;;;;;;;5114974;28;20055;-62
2021/05/27 05:32:47;;;;;;;4.63;2.50;;;;;;;;;;5114989;28;20090;-62
2021/05/27 05:35:14;;;;;;;3.35;3.05;;;;;;;;;;5115051;28;20032;-63
2021/05/27 05:37:39;;;;;;;3.90;2.40;;;;;;;;;;5114965;28;20070;-62
2021/05/27 05:40:06;;;;;;;2.92;2.10;;;;;;;;;;5114964;28;20047;-62
2021/05/27 05:42:31;;;;;;;4.85;2.05;;;;;;;;;;5114783;28;20032;-63
2021/05/27 05:44:57;;;;;;;7.57;2.53;;;;;;;;;;5114925;28;20092;-62
2021/05/27 05:47:22;;;;;;;4.40;2.15;;;;;;;;;;5114602;28;20032;-63
2021/05/27 05:49:47;;;;;;;7.03;1.90;;;;;;;;;;5115019;28;20506;-63
2021/05/27 05:52:13;;;;;;;2.78;2.10;;;;;;;;;;5114621;28;20088;-63
2021/05/27 05:54:39;;;;;;;4.32;1.92;;;;;;;;;;5114396;28;20473;-63
2021/05/27 05:57:04;;;;;;;3.38;1.77;;;;;;;;;;5114546;28;20028;-63
2021/05/27 05:59:29;;;;;;;3.80;1.70;;;;;;;;;;5114527;28;20118;-63
2021/05/27 06:01:55;;;;;;;1.92;1.40;;;;;;;;;;5114108;28;20081;-63
2021/05/27 06:04:20;;;;;;;1.80;1.45;;;;;;;;;;5113833;28;20031;-63
2021/05/27 06:06:46;;;;;;;4.40;1.50;;;;;;;;;;5114331;28;20039;-64
2021/05/27 06:09:11;;;;;;;3.33;1.83;;;;;;;;;;5114188;28;20460;-63
2021/05/27 06:11:36;;;;;;;3.90;1.40;;;;;;;;;;5114195;28;20038;-64
2021/05/27 06:14:01;;;;;;;3.30;1.35;;;;;;;;;;5114357;28;20408;-63
2021/05/27 06:16:27;;;;;;;2.08;1.40;;;;;;;;;;5114243;28;20059;-63
2021/05/27 06:18:52;;;;;;;2.53;1.27;;;;;;;;;;5114468;28;20023;-63
2021/05/27 06:21:17;;;;;;;5.30;1.45;;;;;;;;;;5114411;28;20798;-64
2021/05/27 06:23:43;;;;;;;8.10;1.70;;;;;;;;;;5114117;28;20073;-63
2021/05/27 06:26:09;;;;;;;6.43;1.40;;;;;;;;;;5114065;28;20035;-64
2021/05/27 06:28:35;;;;;;;1.67;1.20;;;;;;;;;;5113534;28;20046;-64
2021/05/27 06:31:00;;;;;;;2.92;1.60;;;;;;;;;;5093577;28;20024;-64
2021/05/27 06:33:25;;;;;;;2.97;1.30;;;;;;;;;;5093635;28;20036;-64
2021/05/27 06:35:51;;;;;;;3.25;1.60;;;;;;;;;;5093445;28;20034;-64
2021/05/27 06:38:16;;;;;;;3.25;1.45;;;;;;;;;;5093554;28;20016;-64
2021/05/27 06:40:41;;;;;;;3.60;1.90;;;;;;;;;;5093346;28;20031;-64
2021/05/27 06:43:07;;;;;;;3.25;1.20;;;;;;;;;;5093567;28;20036;-64
2021/05/27 06:45:33;;;;;;;2.25;1.35;;;;;;;;;;5093274;28;20357;-64
2021/05/27 06:47:58;;;;;;;3.53;1.73;;;;;;;;;;5093318;28;20044;-64
2021/05/27 06:50:36;;;;;;;3.88;1.60;;;;;;;;;;5093307;28;20054;-64
2021/05/27 06:53:12;;;;;;;2.78;1.40;;;;;;;;;;5093309;28;20020;-65
2021/05/27 06:55:37;;;;;;;2.45;1.23;;;;;;;;;;5092875;28;20047;-65
2021/05/27 06:58:03;;;;;;;3.03;1.45;;;;;;;;;;5093441;28;20016;-64
2021/05/27 07:00:29;;;;;;;4.53;1.48;;;;;;;;;;5093064;28;20111;-64
2021/05/27 07:02:55;;;;;;;3.10;1.60;;;;;;;;;;5093201;28;20071;-64
2021/05/27 07:05:20;;;;;;;2.55;1.40;;;;;;;;;;5093500;28;20091;-64
2021/05/27 07:07:46;;;;;;;2.40;1.45;;;;;;;;;;5092845;28;20036;-64
2021/05/27 07:10:15;;;;;;;2.80;1.33;;;;;;;;;;5092832;28;20052;-64
2021/05/27 07:12:47;;;;;;;1.98;1.27;;;;;;;;;;5092947;28;20012;-64
2021/05/27 07:15:13;;;;;;;4.30;1.40;;;;;;;;;;5094194;28;20039;-64
2021/05/27 07:17:38;;;;;;;2.30;1.40;;;;;;;;;;5097143;28;20028;-64
2021/05/27 07:20:04;;;;;;;3.50;1.60;;;;;;;;;;5097434;28;20384;-64
2021/05/27 07:22:29;;;;;;;6.57;1.50;;;;;;;;;;5097164;28;20035;-64
2021/05/27 07:24:54;;;;;;;6.90;1.88;;;;;;;;;;5093537;28;20040;-64
2021/05/27 07:27:20;;;;;;;1.95;1.25;;;;;;;;;;5094652;28;20016;-65
2021/05/27 07:29:48;;;;;;;5.95;1.55;;;;;;;;;;5104248;28;20063;-64
2021/05/27 07:32:13;;;;;;;2.75;1.58;;;;;;;;;;5114541;28;20020;-65
2021/05/27 07:34:38;;;;;;;3.85;1.60;;;;;;;;;;5104663;28;20360;-63
2021/05/27 07:37:04;;;;;;;2.83;1.88;;;;;;;;;;5113789;28;20063;-64
2021/05/27 07:39:29;;;;;;;3.92;2.10;;;;;;;;;;5113862;28;20024;-65
2021/05/27 07:41:55;;;;;;;3.35;2.00;;;;;;;;;;5112692;28;20456;-64
2021/05/27 07:44:20;;;;;;;3.53;2.10;;;;;;;;;;5114228;28;20028;-64
2021/05/27 07:46:45;;;;;;;6.65;2.03;;;;;;;;;;5114262;28;20011;-65
2021/05/27 07:49:11;;;;;;;5.43;2.13;;;;;;;;;;5094705;28;20043;-65
2021/05/27 07:51:36;;;;;;;3.92;2.00;;;;;;;;;;5099605;28;20039;-65
2021/05/27 07:54:01;;;;;;;3.58;2.03;;;;;;;;;;5104182;28;20452;-65
2021/05/27 07:56:26;;;;;;;4.03;2.00;;;;;;;;;;5113830;28;20227;-65
2021/05/27 07:58:52;;;;;;;3.58;2.10;;;;;;;;;;5113332;28;20468;-65
2021/05/27 08:01:17;;;;;;;3.58;1.98;;;;;;;;;;5113562;28;20036;-65
2021/05/27 08:03:43;;;;;;;3.65;2.13;;;;;;;;;;5112740;28;20059;-66
2021/05/27 08:06:08;;;;;;;5.20;2.20;;;;;;;;;;5113544;28;20035;-65
2021/05/27 08:08:33;;;;;;;3.97;2.08;;;;;;;;;;5114228;28;20432;-65
2021/05/27 08:10:59;;;;;;;2.92;1.60;;;;;;;;;;5112604;28;20044;-65
2021/05/27 08:13:24;;;;;;;6.07;2.25;;;;;;;;;;5112676;28;20043;-65
2021/05/27 08:15:49;;;;;;;4.80;2.00;;;;;;;;;;5112860;28;20427;-65
2021/05/27 08:18:15;;;;;;;4.87;2.00;;;;;;;;;;5114755;28;20459;-64
2021/05/27 08:20:40;;;;;;;3.50;2.10;;;;;;;;;;5113664;28;20316;-65
2021/05/27 08:23:05;;;;;;;4.40;2.15;;;;;;;;;;5113640;28;20024;-65
2021/05/27 08:25:31;;;;;;;3.60;2.00;;;;;;;;;;5111375;28;20031;-65
2021/05/27 08:27:56;;;;;;;6.93;2.30;;;;;;;;;;5100098;28;20046;-65
2021/05/27 08:30:22;;;;;;;3.28;1.80;;;;;;;;;;5111497;28;20027;-65
2021/05/27 08:32:47;;;;;;;4.25;2.30;;;;;;;;;;5106724;28;20464;-64
2021/05/27 08:35:13;;;;;;;5.57;2.60;;;;;;;;;;5109589;28;20062;-65
2021/05/27 08:37:38;;;;;;;4.25;2.17;;;;;;;;;;5110771;28;20019;-64
2021/05/27 08:40:04;;;;;;;6.07;2.45;;;;;;;;;;5108112;28;20016;-64
2021/05/27 08:42:30;;;;;;;4.00;2.35;;;;;;;;;;5108352;28;20038;-65
2021/05/27 08:44:55;;;;;;;2.95;1.90;;;;;;;;;;5095688;28;20372;-65
2021/05/27 08:47:21;;;;;;;4.30;2.40;;;;;;;;;;5106685;28;20428;-65
2021/05/27 08:49:48;;;;;;;3.58;2.28;;;;;;;;;;5101271;28;20027;-65
2021/05/27 08:52:14;;;;;;;5.07;2.47;;;;;;;;;;5097225;28;20081;-65
2021/05/27 08:54:39;;;;;;;3.55;2.13;;;;;;;;;;5106154;28;20031;-65
2021/05/27 08:57:05;;;;;;;5.00;2.33;;;;;;;;;;5092466;28;20043;-65
2021/05/27 08:59:30;;;;;;;4.22;2.22;;;;;;;;;;5092280;28;20040;-65
2021/05/27 09:02:22;;;;;;;6.22;2.03;;;;;;;;;;5091184;28;20028;-65
2021/05/27 09:04:47;;;;;;;7.00;2.85;;;;;;;;;;5086188;28;20453;-65
2021/05/27 09:07:13;;;;;;;2.03;1.53;;;;;;;;;;5100560;28;20024;-65
2021/05/27 09:09:48;;;;;;;3.92;1.73;;;;;;;;;;5111506;28;20276;-65
2021/05/27 09:12:33;;;;;;;3.75;1.70;;;;;;;;;;5095775;28;20047;-64
2021/05/27 09:14:59;;;;;;;5.25;2.25;;;;;;;;;;5108971;28;20115;-65
2021/05/27 09:17:24;;;;;;;2.88;2.08;;;;;;;;;;5096229;28;20094;-65
2021/05/27 09:20:08;;;;;;;4.68;1.92;;;;;;;;;;5090027;28;20047;-65
2021/05/27 09:22:33;;;;;;;3.50;1.60;;;;;;;;;;5090088;28;20040;-65
2021/05/27 09:24:59;;;;;;;4.10;2.33;;;;;;;;;;5091084;28;20046;-64
2021/05/27 09:27:43;;;;;;;9.00;2.47;;;;;;;;;;5090756;28;20372;-66
2021/05/27 09:30:09;;;;;;;7.55;2.25;;;;;;;;;;5088753;28;20284;-65
2021/05/27 09:32:37;;;;;;;3.67;1.70;;;;;;;;;;5105069;28;20476;-65
2021/05/27 09:35:05;;;;;;;2.88;1.52;;;;;;;;;;5098365;28;20454;-65
2021/05/27 09:37:31;;;;;;;2.55;1.50;;;;;;;;;;5084702;28;20047;-65
2021/05/27 09:40:00;;;;;;;2.28;1.40;;;;;;;;;;5087052;28;20389;-66
2021/05/27 09:42:26;;;;;;;3.42;1.50;;;;;;;;;;5096581;28;20020;-65
2021/05/27 09:44:51;;;;;;;2.80;1.50;;;;;;;;;;5108400;28;20475;-65
2021/05/27 09:47:49;;;;;;;2.33;1.20;;;;;;;;;;5094980;28;20044;-65
2021/05/27 09:50:14;;;;;;;2.70;1.40;;;;;;;;;;5050922;28;20054;-65
2021/05/27 09:52:41;;;;;;;1.90;1.45;;;;;;;;;;5107513;28;20040;-65
2021/05/27 09:55:11;;;;;;;5.00;2.13;;;;;;;;;;5092058;28;20097;-65
2021/05/27 09:57:36;;;;;;;5.47;1.70;;;;;;;;;;5103918;28;20024;-65
2021/05/27 10:00:03;;;;;;;4.50;2.05;;;;;;;;;;5094297;28;20514;-65
2021/05/27 10:02:29;;;;;;;3.38;2.30;;;;;;;;;;5098400;28;20483;-66
2021/05/27 10:04:57;;;;;;;7.93;2.42;;;;;;;;;;5099786;28;20173;-65
2021/05/27 10:07:52;;;;;;;4.57;2.30;;;;;;;;;;5105308;28;20031;-65
2021/05/27 10:10:19;;;;;;;5.00;2.67;;;;;;;;;;5077270;28;20439;-65
2021/05/27 10:12:45;;;;;;;4.55;2.60;;;;;;;;;;5100088;28;20039;-65
2021/05/27 10:15:13;;;;;;;3.08;1.90;;;;;;;;;;5091445;28;20375;-65
2021/05/27 10:17:39;;;;;;;7.60;2.33;;;;;;;;;;5090776;28;20036;-65
2021/05/27 10:20:08;;;;;;;5.43;2.50;;;;;;;;;;5100217;28;20055;-65
2021/05/27 10:22:34;;;;;;;6.22;2.70;;;;;;;;;;5097330;28;20115;-65
2021/05/27 10:25:00;;;;;;;4.63;2.72;;;;;;;;;;5107610;28;20130;-65
2021/05/27 10:27:26;;;;;;;3.83;2.50;;;;;;;;;;5105573;28;20041;-65
2021/05/27 10:29:52;;;;;;;5.65;2.60;;;;;;;;;;5097415;28;20409;-65
2021/05/27 10:32:18;;;;;;;5.90;2.15;;;;;;;;;;5097577;28;20032;-64
2021/05/27 10:34:45;;;;;;;9.00;2.00;;;;;;;;;;5099672;28;20043;-64
2021/05/27 10:37:11;;;;;;;5.47;1.95;;;;;;;;;;5090376;28;20016;-64
2021/05/27 10:39:37;;;;;;;4.43;2.28;;;;;;;;;;5103162;28;20501;-66
2021/05/27 10:42:03;;;;;;;4.63;2.40;;;;;;;;;;5093730;28;20031;-66
2021/05/27 10:44:28;;;;;;;4.07;2.35;;;;;;;;;;5095143;28;20032;-66
2021/05/27 10:46:53;;;;;;;3.90;1.95;;;;;;;;;;5100440;28;20033;-65
2021/05/27 10:49:43;;;;;;;2.83;1.80;;;;;;;;;;5105791;28;20519;-65
2021/05/27 10:52:32;;;;;;;3.92;1.98;;;;;;;;;;5081330;28;20097;-66
2021/05/27 10:54:58;;;;;;;4.97;2.00;;;;;;;;;;5078589;28;20043;-65
2021/05/27 10:57:38;;;;;;;6.22;2.10;;;;;;;;;;5104951;28;20042;-65
2021/05/27 11:00:04;;;;;;;3.30;1.77;;;;;;;;;;5099331;28;20515;-65
2021/05/27 11:02:30;;;;;;;5.55;1.77;;;;;;;;;;5096851;28;20119;-66
2021/05/27 11:05:14;;;;;;;3.03;1.63;;;;;;;;;;5092553;28;20119;-65
2021/05/27 11:07:39;;;;;;;4.40;1.63;;;;;;;;;;5089682;28;20088;-65
2021/05/27 11:10:24;;;;;;;3.90;1.85;;;;;;;;;;5098753;28;20062;-65
2021/05/27 11:13:05;;;;;;;8.23;1.85;;;;;;;;;;5098992;28;20027;-65
2021/05/27 11:15:30;;;;;;;5.32;1.85;;;;;;;;;;5088928;28;20455;-64
2021/05/27 11:17:59;;;;;;;4.35;1.77;;;;;;;;;;5099386;28;20127;-65
2021/05/27 11:20:27;;;;;;;4.05;1.90;;;;;;;;;;5096073;28;20120;-64
2021/05/27 11:22:59;;;;;;;6.55;2.30;;;;;;;;;;5093926;28;20361;-65
2021/05/27 11:25:26;;;;;;;6.90;2.55;;;;;;;;;;5110448;28;20024;-64
2021/05/27 11:27:55;;;;;;;7.93;2.63;;;;;;;;;;5110858;28;20027;-65
2021/05/27 11:30:20;;;;;;;3.70;1.85;;;;;;;;;;5110843;28;20031;-65
2021/05/27 11:33:05;;;;;;;3.85;2.08;;;;;;;;;;5110360;28;20020;-65
2021/05/27 11:35:31;;;;;;;;;;;;;;;;;;5109974;28;20104;-65
2021/05/27 11:37:56;;;;;;;4.47;2.33;;;;;;;;;;5110850;28;19947;-66
2021/05/27 11:40:29;;;;;;;6.20;2.22;;;;;;;;;;5092417;28;20085;-66
2021/05/27 11:42:55;;;;;;;6.35;2.60;;;;;;;;;;5110341;28;20036;-65
2021/05/27 11:45:22;;;;;;;5.22;2.25;;;;;;;;;;5110195;28;20472;-65
2021/05/27 11:48:06;;;;;;;5.82;2.25;;;;;;;;;;5110133;28;20111;-65
2021/05/27 11:50:31;;;;;;;4.75;2.40;;;;;;;;;;5110360;28;20059;-65
2021/05/27 11:52:57;;;;;;;10.55;2.60;;;;;;;;;;5109420;28;20532;-66
2021/05/27 11:55:23;;;;;;;7.75;2.47;;;;;;;;;;5109015;28;20024;-65
2021/05/27 11:57:49;;;;;;;7.03;2.40;;;;;;;;;;5108527;28;20044;-65
2021/05/27 12:00:18;;;;;;;6.00;2.38;;;;;;;;;;5087389;28;20059;-64
2021/05/27 12:02:46;;;;;;;5.32;1.98;;;;;;;;;;5095920;28;20016;-65
2021/05/27 12:05:20;;;;;;;6.18;2.20;;;;;;;;;;5100570;28;20043;-65
2021/05/27 12:07:58;;;;;;;7.00;2.20;;;;;;;;;;5093144;28;20395;-64
2021/05/27 12:10:24;;;;;;;5.35;1.85;;;;;;;;;;5100979;28;20137;-65
2021/05/27 12:12:49;;;;;;;6.30;2.42;;;;;;;;;;5099541;28;20078;-64
2021/05/27 12:15:16;;;;;;;6.55;2.75;;;;;;;;;;5101654;28;20028;-65
2021/05/27 12:17:45;;;;;;;6.60;2.13;;;;;;;;;;5097813;28;20040;-65
2021/05/27 12:20:19;;;;;;;7.15;2.35;;;;;;;;;;5077346;28;20027;-65
2021/05/27 12:22:55;;;;;;;6.70;2.42;;;;;;;;;;5097994;28;20850;-65
2021/05/27 12:25:21;;;;;;;5.93;2.35;;;;;;;;;;5106445;28;20076;-65
2021/05/27 12:27:51;;;;;;;4.75;2.83;;;;;;;;;;5087648;28;20028;-65
2021/05/27 12:30:18;;;;;;;5.43;2.45;;;;;;;;;;5103470;28;20035;-65
2021/05/27 12:32:45;;;;;;;7.72;2.88;;;;;;;;;;5097046;28;20111;-65
2021/05/27 12:35:14;;;;;;;7.15;2.80;;;;;;;;;;5105459;28;20032;-65
2021/05/27 12:37:39;;;;;;;7.28;2.85;;;;;;;;;;5105533;28;20450;-65
2021/05/27 12:40:08;;;;;;;6.72;2.40;;;;;;;;;;5096698;28;20015;-65
2021/05/27 12:42:35;;;;;;;11.65;2.75;;;;;;;;;;5099442;28;20461;-65
2021/05/27 12:45:00;;;;;;;6.00;2.70;;;;;;;;;;5112879;28;20036;-65
2021/05/27 12:47:25;;;;;;;6.05;2.35;;;;;;;;;;5111567;28;20039;-65
2021/05/27 12:49:52;;;;;;;7.45;2.55;;;;;;;;;;5111108;28;20076;-65
2021/05/27 12:52:36;;;;;;;20.17;5.40;;;;;;;;;;5110715;28;20050;-65
2021/05/27 12:55:06;;;;;;;11.70;3.08;;;;;;;;;;5112185;28;20038;-65
2021/05/27 12:57:32;;;;;;;7.03;2.97;;;;;;;;;;5112270;28;20031;-65
2021/05/27 12:59:57;;;;;;;10.93;3.78;;;;;;;;;;5112589;28;20038;-66
2021/05/27 13:02:23;;;;;;;6.40;3.40;;;;;;;;;;5112078;28;20088;-65
2021/05/27 13:04:49;;;;;;;6.13;2.55;;;;;;;;;;5112310;28;20038;-65
2021/05/27 13:07:15;;;;;;;10.48;3.35;;;;;;;;;;5093814;28;20019;-64
2021/05/27 13:09:46;;;;;;;9.15;2.63;;;;;;;;;;5112904;28;20074;-65
2021/05/27 13:12:12;;;;;;;30.02;7.20;;;;;;;;;;5112184;28;20035;-65
2021/05/27 13:14:37;;;;;;;18.83;4.93;;;;;;;;;;5112158;28;20440;-65
2021/05/27 13:17:16;;;;;;;8.52;3.20;;;;;;;;;;5111749;28;20456;-65
2021/05/27 13:19:42;;;;;;;7.32;3.47;;;;;;;;;;5111759;28;20035;-65
2021/05/27 13:22:23;;;;;;;5.80;3.00;;;;;;;;;;5111699;28;20031;-65
2021/05/27 13:24:55;;;;;;;7.30;3.30;;;;;;;;;;5111599;28;20122;-65
2021/05/27 13:27:27;;;;;;;8.05;2.92;;;;;;;;;;5111435;28;20067;-65
2021/05/27 13:29:54;;;;;;;7.32;3.13;;;;;;;;;;5111938;28;20076;-65
2021/05/27 13:32:23;;;;;;;7.93;3.00;;;;;;;;;;5099412;28;20069;-65
2021/05/27 13:34:50;;;;;;;11.07;3.00;;;;;;;;;;5103784;28;20487;-65
2021/05/27 13:37:23;;;;;;;5.72;2.50;;;;;;;;;;5104090;28;20039;-65
2021/05/27 13:39:48;;;;;;;5.55;2.65;;;;;;;;;;5093889;28;20051;-65
2021/05/27 13:42:14;;;;;;;5.72;3.22;;;;;;;;;;5098405;28;20043;-65
2021/05/27 13:44:39;;;;;;;4.97;2.42;;;;;;;;;;5108271;28;20103;-65
2021/05/27 13:47:04;;;;;;;5.80;2.83;;;;;;;;;;5090438;28;20020;-65
2021/05/27 13:49:29;;;;;;;5.03;2.38;;;;;;;;;;5103545;28;20036;-65
2021/05/27 13:51:55;;;;;;;5.68;2.70;;;;;;;;;;5101026;28;20030;-65
2021/05/27 13:54:21;;;;;;;5.40;2.80;;;;;;;;;;5095627;28;20482;-64
2021/05/27 13:56:46;;;;;;;8.05;2.58;;;;;;;;;;5102037;28;20506;-65
2021/05/27 13:59:12;;;;;;;3.38;2.13;;;;;;;;;;5091244;28;20038;-64
2021/05/27 14:01:38;;;;;;;4.40;2.22;;;;;;;;;;5101071;28;20094;-65
2021/05/27 14:04:04;;;;;;;6.60;2.65;;;;;;;;;;5104744;28;20024;-65
2021/05/27 14:06:29;;;;;;;7.32;2.60;;;;;;;;;;5107892;28;20027;-65
2021/05/27 14:08:55;;;;;;;5.85;2.60;;;;;;;;;;5090992;28;20024;-65
2021/05/27 14:11:21;;;;;;;6.75;2.20;;;;;;;;;;5105399;28;20055;-65
2021/05/27 14:13:48;;;;;;;5.50;2.30;;;;;;;;;;5095146;28;20436;-64
2021/05/27 14:16:14;;;;;;;8.73;2.72;;;;;;;;;;5091309;28;20421;-65
2021/05/27 14:18:39;;;;;;;6.35;2.92;;;;;;;;;;5090687;28;20123;-65
2021/05/27 14:21:05;;;;;;;7.43;2.97;;;;;;;;;;5090959;28;20024;-65
2021/05/27 14:23:30;;;;;;;4.60;2.35;;;;;;;;;;5090741;28;20020;-65
2021/05/27 14:25:55;;;;;;;9.88;2.95;;;;;;;;;;5087301;28;20047;-64
2021/05/27 14:28:21;;;;;;;9.65;3.28;;;;;;;;;;5090223;28;20044;-65
2021/05/27 14:30:46;;;;;;;7.18;2.38;;;;;;;;;;5089466;28;20094;-64
2021/05/27 14:33:11;;;;;;;4.65;1.98;;;;;;;;;;5092802;28;20035;-64
2021/05/27 14:35:37;;;;;;;10.45;3.17;;;;;;;;;;5102883;28;20028;-65
2021/05/27 14:38:02;;;;;;;3.40;2.00;;;;;;;;;;5091877;28;20024;-64
2021/05/27 14:40:27;;;;;;;6.43;2.00;;;;;;;;;;5096761;28;20071;-64
2021/05/27 14:42:53;;;;;;;4.13;2.00;;;;;;;;;;5098986;28;20081;-65
2021/05/27 14:45:18;;;;;;;4.85;2.05;;;;;;;;;;5098110;28;20100;-65